createdAt,value
2022-09-02T00:02:49.743Z,13.63
2022-09-02T00:05:53.966Z,13.60
2022-09-02T00:08:58.138Z,13.58
2022-09-02T00:12:02.494Z,13.58
2022-09-02T00:15:07.423Z,13.59
2022-09-02T00:18:15.577Z,13.58
2022-09-02T00:21:22.688Z,13.56
2022-09-02T00:24:26.773Z,13.55
2022-09-02T00:27:30.926Z,13.54
2022-09-02T00:30:35.794Z,13.54
2022-09-02T00:33:40.397Z,13.53
2022-09-02T00:36:44.356Z,13.51
2022-09-02T00:39:48.331Z,13.48
2022-09-02T00:42:52.582Z,13.45
2022-09-02T00:45:56.768Z,13.43
2022-09-02T00:49:03.654Z,13.41
2022-09-02T00:52:10.420Z,13.40
2022-09-02T00:55:16.168Z,13.36
2022-09-02T00:58:22.582Z,13.33
2022-09-02T01:01:27.493Z,13.29
2022-09-02T01:04:31.540Z,13.25
2022-09-02T01:07:38.727Z,13.22
2022-09-02T01:10:43.415Z,13.18
2022-09-02T01:13:47.768Z,13.14
2022-09-02T01:16:53.112Z,13.12
2022-09-02T01:19:58.964Z,13.10
2022-09-02T01:23:03.110Z,13.08
2022-09-02T01:26:08.023Z,13.06
2022-09-02T01:29:11.955Z,13.05
2022-09-02T01:32:15.930Z,13.03
2022-09-02T01:35:19.837Z,13.01
2022-09-02T01:38:24.572Z,12.98
2022-09-02T01:41:28.790Z,12.96
2022-09-02T01:44:33.673Z,12.95
2022-09-02T01:47:37.784Z,12.92
2022-09-02T01:50:46.749Z,12.90
2022-09-02T01:53:51.019Z,12.87
2022-09-02T01:56:55.144Z,12.85
2022-09-02T01:59:59.186Z,12.83
2022-09-02T02:03:03.765Z,12.81
2022-09-02T02:06:11.696Z,12.79
2022-09-02T02:09:16.538Z,12.77
2022-09-02T02:12:21.090Z,12.75
2022-09-02T02:18:29.868Z,12.72
2022-09-02T02:21:33.961Z,12.69
2022-09-02T02:24:38.382Z,12.67
2022-09-02T02:27:43.593Z,12.65
2022-09-02T02:30:47.934Z,12.63
2022-09-02T02:33:52.120Z,12.60
2022-09-02T02:36:56.197Z,12.55
2022-09-02T02:40:00.260Z,12.49
2022-09-02T02:43:04.561Z,12.44
2022-09-02T02:46:09.204Z,12.41
2022-09-02T02:49:13.193Z,12.41
2022-09-02T02:52:17.315Z,12.41
2022-09-02T02:55:21.847Z,12.38
2022-09-02T02:58:25.923Z,12.36
2022-09-02T03:01:30.090Z,12.34
2022-09-02T03:04:34.412Z,12.31
2022-09-02T03:07:38.672Z,12.27
2022-09-02T03:10:43.276Z,12.23
2022-09-02T03:13:47.219Z,12.21
2022-09-02T03:16:51.200Z,12.18
2022-09-02T03:19:57.803Z,12.16
2022-09-02T03:23:02.103Z,12.13
2022-09-02T03:26:10.395Z,12.11
2022-09-02T03:29:14.478Z,12.08
2022-09-02T03:32:18.525Z,12.03
2022-09-02T03:35:23.224Z,11.96
2022-09-02T03:38:27.321Z,11.91
2022-09-02T03:41:31.223Z,11.89
2022-09-02T03:44:35.411Z,11.86
2022-09-02T03:47:44.073Z,11.82
2022-09-02T03:50:48.439Z,11.80
2022-09-02T03:53:52.384Z,11.82
2022-09-02T03:56:56.283Z,11.81
2022-09-02T04:00:00.208Z,11.81
2022-09-02T04:03:04.737Z,11.81
2022-09-02T04:06:10.359Z,11.80
2022-09-02T04:09:14.318Z,11.79
2022-09-02T04:12:18.446Z,11.79
2022-09-02T04:15:22.787Z,11.78
2022-09-02T04:18:26.940Z,11.77
2022-09-02T04:21:33.694Z,11.77
2022-09-02T04:24:38.719Z,11.74
2022-09-02T04:27:42.665Z,11.75
2022-09-02T04:30:46.624Z,11.75
2022-09-02T04:33:50.587Z,11.76
2022-09-02T04:36:54.928Z,11.76
2022-09-02T04:39:58.973Z,11.77
2022-09-02T04:43:03.060Z,11.78
2022-09-02T04:46:07.834Z,11.81
2022-09-02T04:49:13.017Z,11.83
2022-09-02T04:52:16.939Z,11.86
2022-09-02T04:55:20.967Z,11.89
2022-09-02T04:58:25.055Z,11.93
2022-09-02T05:01:30.362Z,11.99
2022-09-02T05:04:34.551Z,12.02
2022-09-02T05:07:39.701Z,12.04
2022-09-02T05:10:43.646Z,12.07
2022-09-02T05:13:51.544Z,12.12
2022-09-02T05:16:55.531Z,12.16
2022-09-02T05:19:59.830Z,12.20
2022-09-02T05:23:03.763Z,12.22
2022-09-02T05:26:08.420Z,12.25
2022-09-02T05:29:13.042Z,12.27
2022-09-02T05:32:17.288Z,12.30
2022-09-02T05:35:21.360Z,12.35
2022-09-02T05:38:25.687Z,12.41
2022-09-02T05:41:29.652Z,12.46
2022-09-02T05:44:33.880Z,12.50
2022-09-02T05:47:37.834Z,12.54
2022-09-02T05:50:41.765Z,12.59
2022-09-02T05:53:45.813Z,12.68
2022-09-02T05:56:50.954Z,12.77
2022-09-02T05:59:56.981Z,12.87
2022-09-02T06:03:01.117Z,12.97
2022-09-02T06:06:06.874Z,13.08
2022-09-02T06:09:11.986Z,13.21
2022-09-02T06:12:19.013Z,13.34
2022-09-02T06:15:23.058Z,13.44
2022-09-02T06:18:27.105Z,13.54
2022-09-02T06:21:31.552Z,13.66
2022-09-02T06:24:35.597Z,13.78
2022-09-02T06:27:40.246Z,13.91
2022-09-02T06:30:45.334Z,14.04
2022-09-02T06:33:50.071Z,14.15
2022-09-02T06:36:54.619Z,14.28
2022-09-02T06:39:58.937Z,14.45
2022-09-02T06:43:02.985Z,14.65
2022-09-02T06:46:07.649Z,14.89
2022-09-02T06:49:12.320Z,15.14
2022-09-02T06:52:16.234Z,15.43
2022-09-02T06:55:20.500Z,15.68
2022-09-02T06:58:24.420Z,15.92
2022-09-02T07:01:29.688Z,16.18
2022-09-02T07:04:53.176Z,16.49
2022-09-02T07:07:59.836Z,16.86
2022-09-02T07:11:03.777Z,17.19
2022-09-02T07:14:07.924Z,17.51
2022-09-02T07:17:12.822Z,17.84
2022-09-02T07:20:17.804Z,18.13
2022-09-02T07:23:21.771Z,18.32
2022-09-02T07:26:25.717Z,18.08
2022-09-02T07:29:29.986Z,17.81
2022-09-02T07:32:33.976Z,17.72
2022-09-02T07:35:38.558Z,17.69
2022-09-02T07:38:43.232Z,17.76
2022-09-02T07:41:49.258Z,17.80
2022-09-02T07:44:53.231Z,17.78
2022-09-02T07:47:57.515Z,17.77
2022-09-02T07:51:02.011Z,17.72
2022-09-02T07:54:07.148Z,17.73
2022-09-02T07:57:11.494Z,17.83
2022-09-02T08:00:16.594Z,18.11
2022-09-02T08:03:21.193Z,18.73
2022-09-02T08:06:33.677Z,18.94
2022-09-02T08:09:39.442Z,18.77
2022-09-02T08:12:44.167Z,18.72
2022-09-02T08:15:50.905Z,18.63
2022-09-02T08:18:55.469Z,18.53
2022-09-02T08:22:03.431Z,18.50
2022-09-02T08:25:07.920Z,18.53
2022-09-02T08:28:12.165Z,18.58
2022-09-02T08:31:16.632Z,18.52
2022-09-02T08:34:20.604Z,18.47
2022-09-02T08:37:25.266Z,18.46
2022-09-02T08:40:34.286Z,18.49
2022-09-02T08:43:41.085Z,18.59
2022-09-02T08:46:45.159Z,18.73
2022-09-02T08:49:51.033Z,18.84
2022-09-02T08:52:59.489Z,18.88
2022-09-02T08:56:04.802Z,18.88
2022-09-02T08:59:10.350Z,18.88
2022-09-02T09:02:22.697Z,18.90
2022-09-02T09:05:32.385Z,18.96
2022-09-02T09:08:40.834Z,18.97
2022-09-02T09:11:48.832Z,18.95
2022-09-02T09:14:56.291Z,18.93
2022-09-02T09:18:03.094Z,18.88
2022-09-02T09:21:07.603Z,18.86
2022-09-02T09:24:26.865Z,18.84
2022-09-02T09:27:30.799Z,18.73
2022-09-02T09:30:34.784Z,18.65
2022-09-02T09:33:38.802Z,18.63
2022-09-02T09:36:46.897Z,18.60
2022-09-02T09:39:50.937Z,18.58
2022-09-02T09:42:57.238Z,18.61
2022-09-02T09:46:21.004Z,18.62
2022-09-02T09:49:28.420Z,18.63
2022-09-02T09:52:32.506Z,18.67
2022-09-02T09:55:50.484Z,18.70
2022-09-02T09:58:54.723Z,18.76
2022-09-02T10:01:58.748Z,18.79
2022-09-02T10:05:17.365Z,18.86
2022-09-02T10:08:22.891Z,18.97
2022-09-02T10:11:29.069Z,19.05
2022-09-02T10:14:36.059Z,19.15
2022-09-02T10:17:45.189Z,19.26
2022-09-02T10:24:28.632Z,19.33
2022-09-02T10:27:38.399Z,19.28
2022-09-02T10:30:46.130Z,19.28
2022-09-02T10:33:58.359Z,19.28
2022-09-02T10:37:11.812Z,19.29
2022-09-02T10:40:17.640Z,19.28
2022-09-02T10:43:29.229Z,19.23
2022-09-02T10:46:36.644Z,19.23
2022-09-02T10:50:01.068Z,19.31
2022-09-02T10:53:13.427Z,19.41
2022-09-02T10:56:18.637Z,19.48
2022-09-02T10:59:24.640Z,19.54
2022-09-02T11:02:31.747Z,19.50
2022-09-02T11:05:42.915Z,19.44
2022-09-02T11:08:48.866Z,19.39
2022-09-02T11:12:00.122Z,19.38
2022-09-02T11:15:11.290Z,19.52
2022-09-02T11:18:19.474Z,19.70
2022-09-02T11:21:32.725Z,19.88
2022-09-02T11:24:45.883Z,20.02
2022-09-02T11:27:56.008Z,20.07
2022-09-02T11:31:06.912Z,19.99
2022-09-02T11:34:16.573Z,19.94
2022-09-02T11:37:30.090Z,19.99
2022-09-02T11:40:38.713Z,20.06
2022-09-02T11:43:46.654Z,20.11
2022-09-02T11:46:58.645Z,20.17
2022-09-02T11:50:11.112Z,20.16
2022-09-02T11:53:20.725Z,20.13
2022-09-02T11:56:26.770Z,20.10
2022-09-02T11:59:44.551Z,20.07
2022-09-02T12:02:50.507Z,20.17
2022-09-02T12:06:13.764Z,20.30
2022-09-02T12:09:37.968Z,20.42
2022-09-02T12:13:00.558Z,20.55
2022-09-02T12:16:24.142Z,20.70
2022-09-02T12:19:30.346Z,20.78
2022-09-02T12:22:38.692Z,20.83
2022-09-02T12:25:46.480Z,20.90
2022-09-02T12:28:50.993Z,20.89
2022-09-02T12:31:55.308Z,20.83
2022-09-02T12:35:08.837Z,20.79
2022-09-02T12:38:27.232Z,20.81
2022-09-02T12:41:32.868Z,20.88
2022-09-02T12:44:44.453Z,20.96
2022-09-02T12:47:59.630Z,21.06
2022-09-02T12:51:03.699Z,21.10
2022-09-02T12:54:08.043Z,21.10
2022-09-02T12:57:12.024Z,21.10
2022-09-02T13:00:19.636Z,21.03
2022-09-02T13:03:32.127Z,21.00
2022-09-02T13:06:44.602Z,20.96
2022-09-02T13:10:04.681Z,20.93
2022-09-02T13:13:20.973Z,20.86
2022-09-02T13:16:32.334Z,20.78
2022-09-02T13:19:52.245Z,20.76
2022-09-02T13:23:02.659Z,20.73
2022-09-02T13:26:27.516Z,20.72
2022-09-02T13:29:53.144Z,20.74
2022-09-02T13:33:03.445Z,20.71
2022-09-02T13:36:07.558Z,20.67
2022-09-02T13:39:18.769Z,20.58
2022-09-02T13:42:24.582Z,20.48
2022-09-02T13:45:29.677Z,20.39
2022-09-02T13:48:34.992Z,20.33
2022-09-02T13:51:45.550Z,20.27
2022-09-02T13:54:51.305Z,20.20
2022-09-02T13:57:58.393Z,20.14
2022-09-02T14:01:15.916Z,20.14
2022-09-02T14:04:20.198Z,20.16
2022-09-02T14:07:26.083Z,20.18
2022-09-02T14:10:31.508Z,20.17
2022-09-02T14:13:36.771Z,20.17
2022-09-02T14:16:40.899Z,20.17
2022-09-02T14:19:44.815Z,20.16
2022-09-02T14:22:55.314Z,20.13
2022-09-02T14:26:00.188Z,20.09
2022-09-02T14:29:06.317Z,20.05
2022-09-02T14:32:14.552Z,20.02
2022-09-02T14:35:23.394Z,19.97
2022-09-02T14:38:28.789Z,19.90
2022-09-02T14:41:36.148Z,19.84
2022-09-02T14:44:40.893Z,19.78
2022-09-02T14:47:44.967Z,19.73
2022-09-02T14:50:49.588Z,19.67
2022-09-02T14:53:53.523Z,19.61
2022-09-02T14:56:57.508Z,19.54
2022-09-02T15:00:02.344Z,19.51
2022-09-02T15:03:07.190Z,19.49
2022-09-02T15:06:15.111Z,19.47
2022-09-02T15:09:19.814Z,19.46
2022-09-02T15:12:25.750Z,19.44
2022-09-02T15:15:29.814Z,19.42
2022-09-02T15:18:33.928Z,19.43
2022-09-02T15:21:37.973Z,19.42
2022-09-02T15:24:43.526Z,19.42
2022-09-02T15:27:47.507Z,19.41
2022-09-02T15:30:57.970Z,19.39
2022-09-02T15:34:03.293Z,19.38
2022-09-02T15:37:12.186Z,19.37
2022-09-02T15:40:17.309Z,19.35
2022-09-02T15:43:21.476Z,19.36
2022-09-02T15:46:27.329Z,19.36
2022-09-02T15:49:32.623Z,19.38
2022-09-02T15:52:37.026Z,19.38
2022-09-02T15:55:41.077Z,19.40
2022-09-02T15:58:45.084Z,19.39
2022-09-02T16:01:50.037Z,19.38
2022-09-02T16:04:54.287Z,19.37
2022-09-02T16:07:58.231Z,19.36
2022-09-02T16:11:06.094Z,19.35
2022-09-02T16:14:10.536Z,19.34
2022-09-02T16:17:16.593Z,19.31
2022-09-02T16:20:21.465Z,19.26
2022-09-02T16:23:25.831Z,19.23
2022-09-02T16:26:30.537Z,19.18
2022-09-02T16:29:37.295Z,19.14
2022-09-02T16:32:41.463Z,19.11
2022-09-02T16:35:45.686Z,19.08
2022-09-02T16:38:49.656Z,19.04
2022-09-02T16:41:54.553Z,18.99
2022-09-02T16:44:58.623Z,18.94
2022-09-02T16:48:02.595Z,18.88
2022-09-02T16:51:06.823Z,18.83
2022-09-02T16:54:17.669Z,18.76
2022-09-02T16:57:25.544Z,18.70
2022-09-02T17:00:29.880Z,18.64
2022-09-02T17:03:34.112Z,18.58
2022-09-02T17:06:42.045Z,18.52
2022-09-02T17:09:46.471Z,18.46
2022-09-02T17:12:50.491Z,18.41
2022-09-02T17:15:54.456Z,18.34
2022-09-02T17:18:58.615Z,18.27
2022-09-02T17:22:02.628Z,18.19
2022-09-02T17:25:07.377Z,18.13
2022-09-02T17:28:11.366Z,18.07
2022-09-02T17:31:22.994Z,18.00
2022-09-02T17:34:27.268Z,17.93
2022-09-02T17:37:31.188Z,17.86
2022-09-02T17:40:52.593Z,17.78
2022-09-02T17:43:56.512Z,17.71
2022-09-02T17:47:00.787Z,17.64
2022-09-02T17:50:05.681Z,17.56
2022-09-02T17:53:09.707Z,17.49
2022-09-02T17:56:21.965Z,17.42
2022-09-02T17:59:28.820Z,17.35
2022-09-02T18:02:45.100Z,17.29
2022-09-02T18:05:55.677Z,17.22
2022-09-02T18:09:01.400Z,17.15
2022-09-02T18:12:07.473Z,17.08
2022-09-02T18:15:14.656Z,17.02
2022-09-02T18:18:21.687Z,16.96
2022-09-02T18:21:30.537Z,16.91
2022-09-02T18:24:43.669Z,16.86
2022-09-02T18:27:54.900Z,16.81
2022-09-02T18:31:05.701Z,16.75
2022-09-02T18:34:30.225Z,16.69
2022-09-02T18:37:39.251Z,16.64
2022-09-02T18:40:47.912Z,16.58
2022-09-02T18:43:58.866Z,16.52
2022-09-02T18:47:03.700Z,16.46
2022-09-02T18:50:11.297Z,16.39
2022-09-02T18:53:24.164Z,16.34
2022-09-02T18:56:30.848Z,16.29
2022-09-02T18:59:37.903Z,16.30
2022-09-02T19:02:46.166Z,16.75
2022-09-02T19:05:50.774Z,17.24
2022-09-02T19:08:58.041Z,17.57
2022-09-02T19:12:03.143Z,17.82
2022-09-02T19:15:09.972Z,18.02
2022-09-02T19:18:17.122Z,18.19
2022-09-02T19:21:25.909Z,18.34
2022-09-02T19:24:32.772Z,18.48
2022-09-02T19:27:38.977Z,18.60
2022-09-02T19:30:43.022Z,18.70
2022-09-02T19:33:48.975Z,18.80
2022-09-02T19:36:53.765Z,18.88
2022-09-02T19:40:01.850Z,18.76
2022-09-02T19:43:07.863Z,18.27
2022-09-02T19:46:21.938Z,17.86
2022-09-02T19:49:35.798Z,17.52
2022-09-02T19:52:41.850Z,17.27
2022-09-02T19:55:45.807Z,17.05
2022-09-02T19:58:49.728Z,16.85
2022-09-02T20:01:56.374Z,16.66
2022-09-02T20:05:00.384Z,16.59
2022-09-02T20:08:04.888Z,16.93
2022-09-02T20:11:09.135Z,17.25
2022-09-02T20:14:13.111Z,17.46
2022-09-02T20:17:21.945Z,17.60
2022-09-02T20:20:26.591Z,17.71
2022-09-02T20:23:33.579Z,17.80
2022-09-02T20:26:42.440Z,17.88
2022-09-02T20:29:56.894Z,17.95
2022-09-02T20:33:03.576Z,18.00
2022-09-02T20:36:15.872Z,18.03
2022-09-02T20:39:28.158Z,18.06
2022-09-02T20:42:55.800Z,18.08
2022-09-02T20:46:03.412Z,18.08
2022-09-02T20:49:14.179Z,18.10
2022-09-02T20:52:20.211Z,18.11
2022-09-02T20:55:26.260Z,18.11
2022-09-02T20:58:37.098Z,18.06
2022-09-02T21:01:45.522Z,17.57
2022-09-02T21:04:52.148Z,17.00
2022-09-02T21:08:00.947Z,16.53
2022-09-02T21:11:11.409Z,16.14
2022-09-02T21:14:18.700Z,15.81
2022-09-02T21:17:28.600Z,15.53
2022-09-02T21:20:40.775Z,15.52
2022-09-02T21:23:47.730Z,15.89
2022-09-02T21:26:56.603Z,16.16
2022-09-02T21:30:06.287Z,16.31
2022-09-02T21:33:12.743Z,16.42
2022-09-02T21:36:24.597Z,16.50
2022-09-02T21:39:32.473Z,16.57
2022-09-02T21:42:41.136Z,16.65
2022-09-02T21:45:48.417Z,16.69
2022-09-02T21:48:58.356Z,16.69
2022-09-02T21:52:08.328Z,16.70
2022-09-02T21:55:20.300Z,16.73
2022-09-02T21:58:36.176Z,16.77
2022-09-02T22:01:45.238Z,16.77
2022-09-02T22:04:55.301Z,16.76
2022-09-02T22:08:05.103Z,16.78
2022-09-02T22:11:10.711Z,16.81
2022-09-02T22:14:16.760Z,16.88
2022-09-02T22:17:26.151Z,16.94
2022-09-02T22:20:33.012Z,16.95
2022-09-02T22:23:37.427Z,16.96
2022-09-02T22:26:43.312Z,16.99
2022-09-02T22:29:50.671Z,17.03
2022-09-02T22:32:58.999Z,17.05
2022-09-02T22:36:07.060Z,17.06
2022-09-02T22:39:14.926Z,17.08
2022-09-02T22:42:28.526Z,17.10
2022-09-02T22:45:52.915Z,17.09
2022-09-02T22:49:22.582Z,17.07
2022-09-02T22:52:49.811Z,17.04
2022-09-02T22:55:58.924Z,17.03
2022-09-02T22:59:10.827Z,17.01
2022-09-02T23:02:20.413Z,16.97
2022-09-02T23:05:47.907Z,16.90
2022-09-02T23:08:52.192Z,16.83
2022-09-02T23:12:02.399Z,16.79
2022-09-02T23:15:16.239Z,16.76
2022-09-02T23:18:29.884Z,16.73
2022-09-02T23:21:37.652Z,16.69
2022-09-02T23:24:47.535Z,16.66
2022-09-02T23:27:54.878Z,16.62
2022-09-02T23:31:03.402Z,16.59
2022-09-02T23:34:13.844Z,16.56
2022-09-02T23:37:25.254Z,16.54
2022-09-02T23:40:32.551Z,16.54
2022-09-02T23:43:36.970Z,16.52
2022-09-02T23:46:48.438Z,16.52
2022-09-02T23:49:59.109Z,16.51
2022-09-02T23:53:09.808Z,16.52
2022-09-02T23:56:21.275Z,16.53
2022-09-02T23:59:31.748Z,16.52
